sensor_id;sensor_type;location;lat;lon;timestamp;P1;durP1;ratioP1;P2;durP2;ratioP2
67378;SDS011;54262;44.642;-0.974;2023-02-28T00:01:41;40.25;;;24.35;;
67378;SDS011;54262;44.642;-0.974;2023-02-28T00:04:10;41.22;;;22.58;;
67378;SDS011;54262;44.642;-0.974;2023-02-28T00:06:36;37.28;;;22.92;;
67378;SDS011;54262;44.642;-0.974;2023-02-28T00:09:02;26.17;;;16.95;;
67378;SDS011;54262;44.642;-0.974;2023-02-28T00:11:28;23.73;;;16.95;;
67378;SDS011;54262;44.642;-0.974;2023-02-28T00:13:55;17.98;;;15.73;;
67378;SDS011;54262;44.642;-0.974;2023-02-28T00:16:21;21.75;;;17.58;;
67378;SDS011;54262;44.642;-0.974;2023-02-28T00:18:50;26.52;;;20.90;;
67378;SDS011;54262;44.642;-0.974;2023-02-28T00:21:17;16.60;;;14.88;;
67378;SDS011;54262;44.642;-0.974;2023-02-28T00:23:43;17.25;;;15.65;;
67378;SDS011;54262;44.642;-0.974;2023-02-28T00:26:09;17.45;;;15.50;;
67378;SDS011;54262;44.642;-0.974;2023-02-28T00:28:35;22.42;;;16.33;;
67378;SDS011;54262;44.642;-0.974;2023-02-28T00:31:01;21.08;;;17.50;;
67378;SDS011;54262;44.642;-0.974;2023-02-28T00:33:27;16.33;;;14.38;;
67378;SDS011;54262;44.642;-0.974;2023-02-28T00:36:01;14.43;;;13.02;;
67378;SDS011;54262;44.642;-0.974;2023-02-28T00:38:28;13.68;;;11.70;;
67378;SDS011;54262;44.642;-0.974;2023-02-28T00:40:54;12.30;;;11.23;;
67378;SDS011;54262;44.642;-0.974;2023-02-28T00:43:20;14.23;;;12.77;;
67378;SDS011;54262;44.642;-0.974;2023-02-28T00:45:46;12.93;;;11.82;;
67378;SDS011;54262;44.642;-0.974;2023-02-28T00:48:12;13.48;;;10.80;;
67378;SDS011;54262;44.642;-0.974;2023-02-28T00:50:38;11.02;;;10.05;;
67378;SDS011;54262;44.642;-0.974;2023-02-28T00:53:04;13.95;;;10.88;;
67378;SDS011;54262;44.642;-0.974;2023-02-28T00:55:30;10.35;;;9.65;;
67378;SDS011;54262;44.642;-0.974;2023-02-28T00:57:56;11.23;;;10.43;;
67378;SDS011;54262;44.642;-0.974;2023-02-28T01:00:22;9.68;;;8.98;;
67378;SDS011;54262;44.642;-0.974;2023-02-28T01:02:48;12.02;;;9.57;;
67378;SDS011;54262;44.642;-0.974;2023-02-28T01:05:14;9.13;;;8.52;;
67378;SDS011;54262;44.642;-0.974;2023-02-28T01:07:40;9.57;;;8.57;;
67378;SDS011;54262;44.642;-0.974;2023-02-28T01:10:07;8.65;;;7.85;;
67378;SDS011;54262;44.642;-0.974;2023-02-28T01:12:33;7.55;;;6.90;;
67378;SDS011;54262;44.642;-0.974;2023-02-28T01:14:59;7.10;;;6.40;;
67378;SDS011;54262;44.642;-0.974;2023-02-28T01:17:25;7.75;;;7.32;;
67378;SDS011;54262;44.642;-0.974;2023-02-28T01:19:53;7.68;;;7.18;;
67378;SDS011;54262;44.642;-0.974;2023-02-28T01:22:19;9.90;;;7.85;;
67378;SDS011;54262;44.642;-0.974;2023-02-28T01:24:45;7.65;;;7.07;;
67378;SDS011;54262;44.642;-0.974;2023-02-28T01:27:11;7.68;;;7.03;;
67378;SDS011;54262;44.642;-0.974;2023-02-28T01:29:37;8.25;;;7.75;;
67378;SDS011;54262;44.642;-0.974;2023-02-28T01:32:03;11.38;;;8.57;;
67378;SDS011;54262;44.642;-0.974;2023-02-28T01:34:29;9.45;;;8.85;;
67378;SDS011;54262;44.642;-0.974;2023-02-28T01:36:58;11.38;;;8.88;;
67378;SDS011;54262;44.642;-0.974;2023-02-28T01:39:25;8.65;;;8.13;;
67378;SDS011;54262;44.642;-0.974;2023-02-28T01:41:51;9.40;;;8.80;;
67378;SDS011;54262;44.642;-0.974;2023-02-28T01:47:02;8.90;;;8.07;;
67378;SDS011;54262;44.642;-0.974;2023-02-28T01:49:28;9.85;;;9.05;;
67378;SDS011;54262;44.642;-0.974;2023-02-28T01:51:54;9.63;;;8.95;;
67378;SDS011;54262;44.642;-0.974;2023-02-28T01:54:21;9.55;;;8.60;;
67378;SDS011;54262;44.642;-0.974;2023-02-28T01:56:52;9.43;;;8.52;;
67378;SDS011;54262;44.642;-0.974;2023-02-28T01:59:22;8.15;;;7.75;;
67378;SDS011;54262;44.642;-0.974;2023-02-28T02:01:50;9.68;;;9.07;;
67378;SDS011;54262;44.642;-0.974;2023-02-28T02:04:16;8.77;;;8.18;;
67378;SDS011;54262;44.642;-0.974;2023-02-28T02:06:44;9.85;;;9.05;;
67378;SDS011;54262;44.642;-0.974;2023-02-28T02:09:11;9.00;;;8.23;;
67378;SDS011;54262;44.642;-0.974;2023-02-28T02:11:38;8.70;;;8.13;;
67378;SDS011;54262;44.642;-0.974;2023-02-28T02:14:18;7.35;;;6.78;;
67378;SDS011;54262;44.642;-0.974;2023-02-28T02:17:04;8.50;;;7.90;;
67378;SDS011;54262;44.642;-0.974;2023-02-28T02:40:47;7.28;;;6.88;;
67378;SDS011;54262;44.642;-0.974;2023-02-28T02:43:18;7.15;;;6.55;;
67378;SDS011;54262;44.642;-0.974;2023-02-28T02:45:53;7.25;;;6.80;;
67378;SDS011;54262;44.642;-0.974;2023-02-28T02:48:21;7.43;;;7.00;;
67378;SDS011;54262;44.642;-0.974;2023-02-28T02:50:51;6.95;;;6.55;;
67378;SDS011;54262;44.642;-0.974;2023-02-28T02:53:19;7.78;;;7.18;;
67378;SDS011;54262;44.642;-0.974;2023-02-28T02:55:47;7.07;;;6.57;;
67378;SDS011;54262;44.642;-0.974;2023-02-28T02:58:18;6.75;;;6.45;;
67378;SDS011;54262;44.642;-0.974;2023-02-28T03:00:51;6.88;;;6.32;;
67378;SDS011;54262;44.642;-0.974;2023-02-28T03:03:18;7.90;;;7.35;;
67378;SDS011;54262;44.642;-0.974;2023-02-28T03:05:53;6.95;;;6.45;;
67378;SDS011;54262;44.642;-0.974;2023-02-28T03:08:20;6.68;;;6.28;;
67378;SDS011;54262;44.642;-0.974;2023-02-28T03:10:48;6.43;;;6.13;;
67378;SDS011;54262;44.642;-0.974;2023-02-28T03:16:19;6.25;;;5.85;;
67378;SDS011;54262;44.642;-0.974;2023-02-28T03:26:18;6.70;;;6.40;;
67378;SDS011;54262;44.642;-0.974;2023-02-28T03:28:58;6.53;;;6.13;;
67378;SDS011;54262;44.642;-0.974;2023-02-28T03:31:28;6.90;;;6.20;;
67378;SDS011;54262;44.642;-0.974;2023-02-28T03:34:09;6.03;;;5.72;;
67378;SDS011;54262;44.642;-0.974;2023-02-28T03:36:41;6.05;;;5.65;;
67378;SDS011;54262;44.642;-0.974;2023-02-28T03:39:31;6.25;;;5.85;;
67378;SDS011;54262;44.642;-0.974;2023-02-28T03:42:05;6.30;;;5.97;;
67378;SDS011;54262;44.642;-0.974;2023-02-28T03:44:34;6.35;;;5.72;;
67378;SDS011;54262;44.642;-0.974;2023-02-28T03:47:03;6.40;;;5.85;;
67378;SDS011;54262;44.642;-0.974;2023-02-28T03:49:35;6.53;;;6.07;;
67378;SDS011;54262;44.642;-0.974;2023-02-28T03:52:03;8.27;;;6.95;;
67378;SDS011;54262;44.642;-0.974;2023-02-28T03:54:31;6.75;;;6.15;;
67378;SDS011;54262;44.642;-0.974;2023-02-28T03:56:59;7.13;;;6.63;;
67378;SDS011;54262;44.642;-0.974;2023-02-28T04:02:19;6.18;;;5.82;;
67378;SDS011;54262;44.642;-0.974;2023-02-28T04:04:45;6.38;;;5.97;;
67378;SDS011;54262;44.642;-0.974;2023-02-28T04:07:13;6.20;;;5.90;;
67378;SDS011;54262;44.642;-0.974;2023-02-28T04:09:39;5.78;;;5.47;;
67378;SDS011;54262;44.642;-0.974;2023-02-28T04:12:05;7.57;;;5.85;;
67378;SDS011;54262;44.642;-0.974;2023-02-28T04:14:34;7.85;;;5.80;;
67378;SDS011;54262;44.642;-0.974;2023-02-28T04:17:00;6.60;;;6.10;;
67378;SDS011;54262;44.642;-0.974;2023-02-28T04:19:26;6.05;;;5.75;;
67378;SDS011;54262;44.642;-0.974;2023-02-28T04:21:53;6.82;;;6.28;;
67378;SDS011;54262;44.642;-0.974;2023-02-28T04:24:21;5.82;;;5.45;;
67378;SDS011;54262;44.642;-0.974;2023-02-28T04:26:50;7.93;;;5.45;;
67378;SDS011;54262;44.642;-0.974;2023-02-28T04:29:26;7.28;;;5.57;;
67378;SDS011;54262;44.642;-0.974;2023-02-28T04:31:53;5.47;;;5.13;;
67378;SDS011;54262;44.642;-0.974;2023-02-28T04:34:20;5.82;;;5.43;;
67378;SDS011;54262;44.642;-0.974;2023-02-28T04:36:47;5.97;;;5.68;;
67378;SDS011;54262;44.642;-0.974;2023-02-28T04:39:15;5.90;;;5.38;;
67378;SDS011;54262;44.642;-0.974;2023-02-28T04:41:43;5.45;;;5.05;;
67378;SDS011;54262;44.642;-0.974;2023-02-28T04:44:09;4.55;;;4.35;;
67378;SDS011;54262;44.642;-0.974;2023-02-28T04:46:35;4.70;;;4.47;;
67378;SDS011;54262;44.642;-0.974;2023-02-28T04:49:01;5.25;;;4.97;;
67378;SDS011;54262;44.642;-0.974;2023-02-28T04:51:27;5.63;;;5.32;;
67378;SDS011;54262;44.642;-0.974;2023-02-28T04:53:53;5.43;;;5.13;;
67378;SDS011;54262;44.642;-0.974;2023-02-28T04:56:20;7.63;;;4.68;;
67378;SDS011;54262;44.642;-0.974;2023-02-28T04:58:46;5.28;;;4.93;;
67378;SDS011;54262;44.642;-0.974;2023-02-28T05:03:50;7.10;;;4.68;;
67378;SDS011;54262;44.642;-0.974;2023-02-28T05:06:17;5.15;;;4.75;;
67378;SDS011;54262;44.642;-0.974;2023-02-28T05:08:43;5.22;;;4.72;;
67378;SDS011;54262;44.642;-0.974;2023-02-28T05:11:20;5.60;;;5.10;;
67378;SDS011;54262;44.642;-0.974;2023-02-28T05:13:47;5.25;;;4.95;;
67378;SDS011;54262;44.642;-0.974;2023-02-28T05:16:13;5.40;;;4.90;;
67378;SDS011;54262;44.642;-0.974;2023-02-28T05:18:39;4.85;;;4.55;;
67378;SDS011;54262;44.642;-0.974;2023-02-28T05:21:05;4.90;;;4.45;;
67378;SDS011;54262;44.642;-0.974;2023-02-28T05:23:32;5.55;;;5.15;;
67378;SDS011;54262;44.642;-0.974;2023-02-28T05:25:58;5.75;;;5.25;;
67378;SDS011;54262;44.642;-0.974;2023-02-28T05:28:24;6.18;;;5.57;;
67378;SDS011;54262;44.642;-0.974;2023-02-28T05:30:50;8.15;;;6.28;;
67378;SDS011;54262;44.642;-0.974;2023-02-28T05:33:16;6.90;;;6.35;;
67378;SDS011;54262;44.642;-0.974;2023-02-28T05:35:42;6.15;;;5.60;;
67378;SDS011;54262;44.642;-0.974;2023-02-28T05:38:08;5.85;;;5.20;;
67378;SDS011;54262;44.642;-0.974;2023-02-28T05:40:34;5.72;;;5.32;;
67378;SDS011;54262;44.642;-0.974;2023-02-28T05:43:00;9.23;;;6.85;;
67378;SDS011;54262;44.642;-0.974;2023-02-28T05:45:26;7.75;;;7.15;;
67378;SDS011;54262;44.642;-0.974;2023-02-28T05:47:53;6.50;;;6.10;;
67378;SDS011;54262;44.642;-0.974;2023-02-28T05:50:19;5.70;;;5.22;;
67378;SDS011;54262;44.642;-0.974;2023-02-28T05:52:49;5.35;;;4.95;;
67378;SDS011;54262;44.642;-0.974;2023-02-28T05:55:15;5.07;;;4.78;;
67378;SDS011;54262;44.642;-0.974;2023-02-28T05:57:41;5.40;;;5.00;;
67378;SDS011;54262;44.642;-0.974;2023-02-28T06:00:08;5.97;;;5.57;;
67378;SDS011;54262;44.642;-0.974;2023-02-28T06:02:34;6.47;;;6.05;;
67378;SDS011;54262;44.642;-0.974;2023-02-28T06:05:00;7.38;;;6.88;;
67378;SDS011;54262;44.642;-0.974;2023-02-28T06:07:26;6.82;;;6.32;;
67378;SDS011;54262;44.642;-0.974;2023-02-28T06:09:55;6.15;;;5.78;;
67378;SDS011;54262;44.642;-0.974;2023-02-28T06:12:21;6.03;;;5.72;;
67378;SDS011;54262;44.642;-0.974;2023-02-28T06:14:47;5.68;;;5.18;;
67378;SDS011;54262;44.642;-0.974;2023-02-28T06:17:13;4.85;;;4.55;;
67378;SDS011;54262;44.642;-0.974;2023-02-28T06:19:39;5.38;;;4.97;;
67378;SDS011;54262;44.642;-0.974;2023-02-28T06:22:06;7.05;;;4.97;;
67378;SDS011;54262;44.642;-0.974;2023-02-28T06:24:32;4.78;;;4.55;;
67378;SDS011;54262;44.642;-0.974;2023-02-28T06:26:58;5.50;;;5.20;;
67378;SDS011;54262;44.642;-0.974;2023-02-28T06:29:30;5.25;;;4.80;;
67378;SDS011;54262;44.642;-0.974;2023-02-28T06:31:56;5.38;;;5.07;;
67378;SDS011;54262;44.642;-0.974;2023-02-28T06:34:22;5.75;;;5.32;;
67378;SDS011;54262;44.642;-0.974;2023-02-28T06:36:51;5.20;;;4.90;;
67378;SDS011;54262;44.642;-0.974;2023-02-28T06:39:17;5.20;;;4.90;;
67378;SDS011;54262;44.642;-0.974;2023-02-28T06:41:43;6.35;;;5.65;;
67378;SDS011;54262;44.642;-0.974;2023-02-28T06:44:15;5.20;;;4.90;;
67378;SDS011;54262;44.642;-0.974;2023-02-28T06:46:41;5.05;;;4.68;;
67378;SDS011;54262;44.642;-0.974;2023-02-28T06:49:08;4.30;;;4.10;;
67378;SDS011;54262;44.642;-0.974;2023-02-28T06:51:34;4.82;;;4.53;;
67378;SDS011;54262;44.642;-0.974;2023-02-28T06:54:00;4.97;;;4.68;;
67378;SDS011;54262;44.642;-0.974;2023-02-28T06:56:26;6.20;;;4.05;;
67378;SDS011;54262;44.642;-0.974;2023-02-28T06:58:52;4.72;;;4.43;;
67378;SDS011;54262;44.642;-0.974;2023-02-28T07:01:19;5.10;;;4.60;;
67378;SDS011;54262;44.642;-0.974;2023-02-28T07:03:46;4.35;;;4.03;;
67378;SDS011;54262;44.642;-0.974;2023-02-28T07:06:23;4.60;;;4.40;;
67378;SDS011;54262;44.642;-0.974;2023-02-28T07:08:50;5.82;;;5.32;;
67378;SDS011;54262;44.642;-0.974;2023-02-28T07:11:17;6.18;;;4.70;;
67378;SDS011;54262;44.642;-0.974;2023-02-28T07:13:43;5.93;;;5.30;;
67378;SDS011;54262;44.642;-0.974;2023-02-28T07:16:10;5.45;;;4.85;;
67378;SDS011;54262;44.642;-0.974;2023-02-28T07:18:36;5.10;;;4.80;;
67378;SDS011;54262;44.642;-0.974;2023-02-28T07:21:03;4.60;;;4.40;;
67378;SDS011;54262;44.642;-0.974;2023-02-28T07:23:29;5.32;;;5.03;;
67378;SDS011;54262;44.642;-0.974;2023-02-28T07:25:55;5.60;;;5.30;;
67378;SDS011;54262;44.642;-0.974;2023-02-28T07:28:21;5.55;;;5.25;;
67378;SDS011;54262;44.642;-0.974;2023-02-28T07:30:48;5.85;;;5.05;;
67378;SDS011;54262;44.642;-0.974;2023-02-28T07:33:14;9.70;;;8.07;;
67378;SDS011;54262;44.642;-0.974;2023-02-28T07:35:40;5.50;;;5.10;;
67378;SDS011;54262;44.642;-0.974;2023-02-28T07:45:53;4.47;;;4.20;;
67378;SDS011;54262;44.642;-0.974;2023-02-28T07:48:20;4.97;;;4.68;;
67378;SDS011;54262;44.642;-0.974;2023-02-28T07:50:53;4.82;;;4.53;;
67378;SDS011;54262;44.642;-0.974;2023-02-28T07:55:49;5.15;;;4.68;;
67378;SDS011;54262;44.642;-0.974;2023-02-28T07:58:15;4.60;;;4.40;;
67378;SDS011;54262;44.642;-0.974;2023-02-28T08:00:41;4.88;;;4.68;;
67378;SDS011;54262;44.642;-0.974;2023-02-28T08:03:09;5.95;;;5.55;;
67378;SDS011;54262;44.642;-0.974;2023-02-28T08:05:40;6.38;;;6.03;;
67378;SDS011;54262;44.642;-0.974;2023-02-28T08:08:06;6.05;;;5.45;;
67378;SDS011;54262;44.642;-0.974;2023-02-28T08:10:33;6.40;;;6.07;;
67378;SDS011;54262;44.642;-0.974;2023-02-28T08:12:59;5.38;;;5.07;;
67378;SDS011;54262;44.642;-0.974;2023-02-28T08:15:25;6.15;;;5.85;;
67378;SDS011;54262;44.642;-0.974;2023-02-28T08:17:51;6.25;;;5.75;;
67378;SDS011;54262;44.642;-0.974;2023-02-28T08:20:17;6.72;;;6.32;;
67378;SDS011;54262;44.642;-0.974;2023-02-28T08:22:50;7.22;;;6.72;;
67378;SDS011;54262;44.642;-0.974;2023-02-28T08:25:16;5.25;;;4.95;;
67378;SDS011;54262;44.642;-0.974;2023-02-28T08:27:42;5.97;;;5.53;;
67378;SDS011;54262;44.642;-0.974;2023-02-28T08:30:12;5.70;;;5.20;;
67378;SDS011;54262;44.642;-0.974;2023-02-28T08:32:38;5.20;;;4.90;;
67378;SDS011;54262;44.642;-0.974;2023-02-28T08:35:05;5.57;;;5.07;;
67378;SDS011;54262;44.642;-0.974;2023-02-28T08:37:31;4.30;;;4.10;;
67378;SDS011;54262;44.642;-0.974;2023-02-28T08:39:57;6.60;;;5.15;;
67378;SDS011;54262;44.642;-0.974;2023-02-28T08:42:23;5.90;;;5.22;;
67378;SDS011;54262;44.642;-0.974;2023-02-28T08:44:49;6.25;;;5.93;;
67378;SDS011;54262;44.642;-0.974;2023-02-28T08:47:15;5.55;;;4.85;;
67378;SDS011;54262;44.642;-0.974;2023-02-28T08:49:41;5.03;;;4.82;;
67378;SDS011;54262;44.642;-0.974;2023-02-28T08:52:07;5.50;;;5.13;;
67378;SDS011;54262;44.642;-0.974;2023-02-28T08:54:33;5.15;;;4.85;;
67378;SDS011;54262;44.642;-0.974;2023-02-28T08:57:00;5.55;;;5.22;;
67378;SDS011;54262;44.642;-0.974;2023-02-28T08:59:26;5.47;;;4.97;;
67378;SDS011;54262;44.642;-0.974;2023-02-28T09:01:52;5.10;;;4.85;;
67378;SDS011;54262;44.642;-0.974;2023-02-28T09:04:18;4.80;;;4.50;;
67378;SDS011;54262;44.642;-0.974;2023-02-28T09:06:44;3.55;;;3.35;;
67378;SDS011;54262;44.642;-0.974;2023-02-28T09:09:12;4.72;;;4.38;;
67378;SDS011;54262;44.642;-0.974;2023-02-28T09:11:38;5.45;;;4.80;;
67378;SDS011;54262;44.642;-0.974;2023-02-28T09:14:04;5.82;;;5.43;;
67378;SDS011;54262;44.642;-0.974;2023-02-28T09:16:31;6.03;;;5.72;;
67378;SDS011;54262;44.642;-0.974;2023-02-28T09:18:57;5.28;;;4.95;;
67378;SDS011;54262;44.642;-0.974;2023-02-28T09:21:23;5.00;;;4.80;;
67378;SDS011;54262;44.642;-0.974;2023-02-28T09:23:50;5.10;;;4.80;;
67378;SDS011;54262;44.642;-0.974;2023-02-28T09:26:23;4.75;;;4.45;;
67378;SDS011;54262;44.642;-0.974;2023-02-28T09:28:49;4.82;;;4.43;;
67378;SDS011;54262;44.642;-0.974;2023-02-28T09:31:21;6.95;;;4.93;;
67378;SDS011;54262;44.642;-0.974;2023-02-28T09:33:49;4.47;;;4.28;;
67378;SDS011;54262;44.642;-0.974;2023-02-28T09:36:16;4.65;;;4.35;;
67378;SDS011;54262;44.642;-0.974;2023-02-28T09:38:42;4.90;;;4.60;;
67378;SDS011;54262;44.642;-0.974;2023-02-28T09:41:10;5.05;;;4.70;;
67378;SDS011;54262;44.642;-0.974;2023-02-28T09:43:38;5.13;;;4.82;;
67378;SDS011;54262;44.642;-0.974;2023-02-28T09:48:51;4.65;;;4.45;;
67378;SDS011;54262;44.642;-0.974;2023-02-28T09:51:33;5.35;;;5.05;;
67378;SDS011;54262;44.642;-0.974;2023-02-28T09:54:00;5.05;;;4.75;;
67378;SDS011;54262;44.642;-0.974;2023-02-28T09:56:34;4.30;;;4.10;;
67378;SDS011;54262;44.642;-0.974;2023-02-28T09:59:03;4.68;;;4.38;;
67378;SDS011;54262;44.642;-0.974;2023-02-28T10:03:59;4.60;;;4.30;;
67378;SDS011;54262;44.642;-0.974;2023-02-28T10:06:28;4.30;;;4.10;;
67378;SDS011;54262;44.642;-0.974;2023-02-28T10:11:24;4.50;;;3.50;;
67378;SDS011;54262;44.642;-0.974;2023-02-28T10:16:40;5.13;;;4.82;;
67378;SDS011;54262;44.642;-0.974;2023-02-28T10:19:13;5.15;;;4.85;;
67378;SDS011;54262;44.642;-0.974;2023-02-28T10:21:52;4.50;;;4.10;;
67378;SDS011;54262;44.642;-0.974;2023-02-28T10:26:52;3.83;;;3.63;;
67378;SDS011;54262;44.642;-0.974;2023-02-28T10:29:20;4.75;;;3.72;;
67378;SDS011;54262;44.642;-0.974;2023-02-28T10:31:46;3.42;;;3.22;;
67378;SDS011;54262;44.642;-0.974;2023-02-28T10:34:15;3.60;;;3.30;;
67378;SDS011;54262;44.642;-0.974;2023-02-28T10:36:41;4.55;;;4.15;;
67378;SDS011;54262;44.642;-0.974;2023-02-28T10:44:21;4.50;;;3.40;;
67378;SDS011;54262;44.642;-0.974;2023-02-28T10:46:47;4.90;;;4.20;;
67378;SDS011;54262;44.642;-0.974;2023-02-28T10:49:17;4.38;;;3.97;;
67378;SDS011;54262;44.642;-0.974;2023-02-28T10:51:44;5.47;;;4.60;;
67378;SDS011;54262;44.642;-0.974;2023-02-28T10:54:18;3.92;;;3.63;;
67378;SDS011;54262;44.642;-0.974;2023-02-28T10:56:45;4.07;;;3.88;;
67378;SDS011;54262;44.642;-0.974;2023-02-28T10:59:26;4.40;;;4.00;;
67378;SDS011;54262;44.642;-0.974;2023-02-28T11:01:53;5.05;;;3.75;;
67378;SDS011;54262;44.642;-0.974;2023-02-28T11:04:23;3.75;;;3.28;;
67378;SDS011;54262;44.642;-0.974;2023-02-28T11:07:17;4.07;;;3.83;;
67378;SDS011;54262;44.642;-0.974;2023-02-28T11:09:52;4.13;;;3.92;;
67378;SDS011;54262;44.642;-0.974;2023-02-28T11:12:37;4.30;;;4.10;;
67378;SDS011;54262;44.642;-0.974;2023-02-28T11:15:05;10.73;;;4.25;;
67378;SDS011;54262;44.642;-0.974;2023-02-28T11:17:32;3.47;;;3.33;;
67378;SDS011;54262;44.642;-0.974;2023-02-28T11:19:59;4.10;;;3.78;;
67378;SDS011;54262;44.642;-0.974;2023-02-28T11:22:28;4.30;;;4.10;;
67378;SDS011;54262;44.642;-0.974;2023-02-28T11:24:57;3.97;;;3.78;;
67378;SDS011;54262;44.642;-0.974;2023-02-28T11:27:40;4.80;;;4.50;;
67378;SDS011;54262;44.642;-0.974;2023-02-28T11:30:26;4.35;;;4.15;;
67378;SDS011;54262;44.642;-0.974;2023-02-28T11:32:52;4.70;;;4.50;;
67378;SDS011;54262;44.642;-0.974;2023-02-28T11:35:23;4.10;;;3.90;;
67378;SDS011;54262;44.642;-0.974;2023-02-28T11:37:49;2.97;;;2.75;;
67378;SDS011;54262;44.642;-0.974;2023-02-28T11:40:19;6.30;;;3.88;;
67378;SDS011;54262;44.642;-0.974;2023-02-28T11:45:39;3.60;;;3.50;;
67378;SDS011;54262;44.642;-0.974;2023-02-28T11:55:39;3.30;;;3.20;;
67378;SDS011;54262;44.642;-0.974;2023-02-28T12:03:42;4.00;;;3.80;;
67378;SDS011;54262;44.642;-0.974;2023-02-28T12:06:13;3.30;;;3.20;;
67378;SDS011;54262;44.642;-0.974;2023-02-28T12:08:47;4.07;;;3.75;;
67378;SDS011;54262;44.642;-0.974;2023-02-28T12:13:44;4.20;;;3.72;;
67378;SDS011;54262;44.642;-0.974;2023-02-28T12:28:50;5.13;;;4.10;;
67378;SDS011;54262;44.642;-0.974;2023-02-28T12:31:18;3.97;;;3.70;;
67378;SDS011;54262;44.642;-0.974;2023-02-28T12:34:06;4.40;;;4.20;;
67378;SDS011;54262;44.642;-0.974;2023-02-28T12:36:35;4.53;;;4.13;;
67378;SDS011;54262;44.642;-0.974;2023-02-28T12:39:10;3.90;;;3.70;;
67378;SDS011;54262;44.642;-0.974;2023-02-28T12:46:50;4.10;;;3.90;;
67378;SDS011;54262;44.642;-0.974;2023-02-28T12:49:19;4.53;;;4.20;;
67378;SDS011;54262;44.642;-0.974;2023-02-28T12:51:47;4.20;;;4.00;;
67378;SDS011;54262;44.642;-0.974;2023-02-28T12:54:25;3.80;;;3.65;;
67378;SDS011;54262;44.642;-0.974;2023-02-28T13:07:05;6.18;;;2.58;;
67378;SDS011;54262;44.642;-0.974;2023-02-28T13:09:36;3.40;;;3.28;;
67378;SDS011;54262;44.642;-0.974;2023-02-28T13:12:12;6.00;;;2.60;;
67378;SDS011;54262;44.642;-0.974;2023-02-28T13:14:39;4.45;;;4.20;;
67378;SDS011;54262;44.642;-0.974;2023-02-28T13:22:16;3.88;;;3.58;;
67378;SDS011;54262;44.642;-0.974;2023-02-28T13:24:46;3.28;;;3.17;;
67378;SDS011;54262;44.642;-0.974;2023-02-28T13:29:43;3.58;;;3.47;;
67378;SDS011;54262;44.642;-0.974;2023-02-28T13:32:27;3.45;;;3.15;;
67378;SDS011;54262;44.642;-0.974;2023-02-28T13:47:44;3.25;;;3.15;;
67378;SDS011;54262;44.642;-0.974;2023-02-28T13:50:14;5.28;;;4.97;;
67378;SDS011;54262;44.642;-0.974;2023-02-28T13:52:46;3.67;;;3.47;;
67378;SDS011;54262;44.642;-0.974;2023-02-28T13:55:24;4.13;;;3.83;;
67378;SDS011;54262;44.642;-0.974;2023-02-28T13:58:05;7.32;;;4.85;;
67378;SDS011;54262;44.642;-0.974;2023-02-28T14:03:10;4.38;;;4.18;;
67378;SDS011;54262;44.642;-0.974;2023-02-28T14:05:40;4.07;;;3.78;;
67378;SDS011;54262;44.642;-0.974;2023-02-28T14:08:17;4.40;;;3.75;;
67378;SDS011;54262;44.642;-0.974;2023-02-28T14:11:02;3.65;;;3.55;;
67378;SDS011;54262;44.642;-0.974;2023-02-28T14:13:42;4.90;;;4.70;;
67378;SDS011;54262;44.642;-0.974;2023-02-28T14:16:54;5.05;;;4.75;;
67378;SDS011;54262;44.642;-0.974;2023-02-28T14:32:02;4.18;;;3.97;;
67378;SDS011;54262;44.642;-0.974;2023-02-28T14:37:13;4.38;;;4.18;;
67378;SDS011;54262;44.642;-0.974;2023-02-28T14:39:41;4.60;;;4.35;;
67378;SDS011;54262;44.642;-0.974;2023-02-28T14:44:56;3.67;;;3.47;;
67378;SDS011;54262;44.642;-0.974;2023-02-28T14:47:22;3.63;;;3.42;;
67378;SDS011;54262;44.642;-0.974;2023-02-28T14:49:49;3.92;;;3.63;;
67378;SDS011;54262;44.642;-0.974;2023-02-28T14:52:24;4.18;;;3.80;;
67378;SDS011;54262;44.642;-0.974;2023-02-28T14:54:54;4.05;;;3.75;;
67378;SDS011;54262;44.642;-0.974;2023-02-28T14:57:21;3.75;;;3.55;;
67378;SDS011;54262;44.642;-0.974;2023-02-28T14:59:56;3.00;;;2.90;;
67378;SDS011;54262;44.642;-0.974;2023-02-28T15:04:55;3.35;;;3.25;;
67378;SDS011;54262;44.642;-0.974;2023-02-28T15:07:21;2.75;;;2.55;;
67378;SDS011;54262;44.642;-0.974;2023-02-28T15:12:38;3.72;;;3.58;;
67378;SDS011;54262;44.642;-0.974;2023-02-28T15:15:15;3.50;;;3.30;;
67378;SDS011;54262;44.642;-0.974;2023-02-28T15:17:44;3.22;;;3.00;;
67378;SDS011;54262;44.642;-0.974;2023-02-28T15:20:14;3.95;;;3.70;;
67378;SDS011;54262;44.642;-0.974;2023-02-28T15:22:40;3.65;;;3.45;;
67378;SDS011;54262;44.642;-0.974;2023-02-28T15:25:07;4.15;;;3.95;;
67378;SDS011;54262;44.642;-0.974;2023-02-28T15:27:38;3.63;;;3.42;;
67378;SDS011;54262;44.642;-0.974;2023-02-28T15:30:08;3.35;;;3.05;;
67378;SDS011;54262;44.642;-0.974;2023-02-28T15:32:38;3.50;;;3.30;;
67378;SDS011;54262;44.642;-0.974;2023-02-28T15:35:25;4.35;;;4.13;;
67378;SDS011;54262;44.642;-0.974;2023-02-28T15:38:15;3.33;;;3.20;;
67378;SDS011;54262;44.642;-0.974;2023-02-28T15:40:41;3.88;;;3.67;;
67378;SDS011;54262;44.642;-0.974;2023-02-28T15:43:14;3.42;;;3.22;;
67378;SDS011;54262;44.642;-0.974;2023-02-28T15:45:41;3.60;;;3.40;;
67378;SDS011;54262;44.642;-0.974;2023-02-28T15:48:17;3.45;;;3.28;;
67378;SDS011;54262;44.642;-0.974;2023-02-28T15:50:44;3.55;;;3.42;;
67378;SDS011;54262;44.642;-0.974;2023-02-28T15:53:13;3.80;;;3.60;;
67378;SDS011;54262;44.642;-0.974;2023-02-28T15:55:41;3.60;;;3.30;;
67378;SDS011;54262;44.642;-0.974;2023-02-28T15:58:08;3.53;;;3.42;;
67378;SDS011;54262;44.642;-0.974;2023-02-28T16:00:36;3.25;;;3.10;;
67378;SDS011;54262;44.642;-0.974;2023-02-28T16:03:21;3.35;;;3.25;;
67378;SDS011;54262;44.642;-0.974;2023-02-28T16:05:50;3.55;;;3.35;;
67378;SDS011;54262;44.642;-0.974;2023-02-28T16:08:31;4.57;;;4.28;;
67378;SDS011;54262;44.642;-0.974;2023-02-28T16:10:57;4.03;;;3.75;;
67378;SDS011;54262;44.642;-0.974;2023-02-28T16:13:23;2.70;;;2.60;;
67378;SDS011;54262;44.642;-0.974;2023-02-28T16:15:49;3.72;;;3.50;;
67378;SDS011;54262;44.642;-0.974;2023-02-28T16:18:18;3.95;;;3.75;;
67378;SDS011;54262;44.642;-0.974;2023-02-28T16:20:44;3.85;;;3.65;;
67378;SDS011;54262;44.642;-0.974;2023-02-28T16:23:10;4.03;;;3.83;;
67378;SDS011;54262;44.642;-0.974;2023-02-28T16:25:37;3.83;;;3.72;;
67378;SDS011;54262;44.642;-0.974;2023-02-28T16:28:04;4.22;;;4.03;;
67378;SDS011;54262;44.642;-0.974;2023-02-28T16:30:33;6.75;;;6.45;;
67378;SDS011;54262;44.642;-0.974;2023-02-28T16:32:59;4.95;;;4.75;;
67378;SDS011;54262;44.642;-0.974;2023-02-28T16:35:25;5.88;;;5.57;;
67378;SDS011;54262;44.642;-0.974;2023-02-28T16:37:51;5.50;;;5.28;;
67378;SDS011;54262;44.642;-0.974;2023-02-28T16:40:18;6.05;;;5.75;;
67378;SDS011;54262;44.642;-0.974;2023-02-28T16:42:51;4.53;;;4.22;;
67378;SDS011;54262;44.642;-0.974;2023-02-28T16:45:22;4.10;;;4.00;;
67378;SDS011;54262;44.642;-0.974;2023-02-28T16:47:49;4.70;;;4.50;;
67378;SDS011;54262;44.642;-0.974;2023-02-28T16:50:17;4.00;;;3.85;;
67378;SDS011;54262;44.642;-0.974;2023-02-28T16:52:43;3.65;;;3.55;;
67378;SDS011;54262;44.642;-0.974;2023-02-28T16:55:10;3.85;;;3.75;;
67378;SDS011;54262;44.642;-0.974;2023-02-28T16:57:36;4.50;;;4.30;;
67378;SDS011;54262;44.642;-0.974;2023-02-28T17:00:03;4.72;;;4.43;;
67378;SDS011;54262;44.642;-0.974;2023-02-28T17:02:30;4.70;;;4.40;;
67378;SDS011;54262;44.642;-0.974;2023-02-28T17:04:56;5.43;;;5.13;;
67378;SDS011;54262;44.642;-0.974;2023-02-28T17:07:22;4.57;;;4.38;;
67378;SDS011;54262;44.642;-0.974;2023-02-28T17:09:48;3.10;;;3.00;;
67378;SDS011;54262;44.642;-0.974;2023-02-28T17:12:14;4.28;;;4.07;;
67378;SDS011;54262;44.642;-0.974;2023-02-28T17:14:40;5.25;;;4.20;;
67378;SDS011;54262;44.642;-0.974;2023-02-28T17:17:06;4.18;;;4.00;;
67378;SDS011;54262;44.642;-0.974;2023-02-28T17:19:33;4.38;;;4.18;;
67378;SDS011;54262;44.642;-0.974;2023-02-28T17:22:01;5.28;;;5.05;;
67378;SDS011;54262;44.642;-0.974;2023-02-28T17:24:28;6.85;;;6.45;;